Time;durP1;ratioP1;P1;durP2;ratioP2;P2;SDS_P1;SDS_P2;PMS_P1;PMS_P2;Temp;Humidity;BMP_temperature;BMP_pressure;BME280_temperature;BME280_humidity;BME280_pressure;Samples;Min_cycle;Max_cycle;Signal;HPM_P1;HPM_P2
2023/07/21 00:00:48;;;;;;;5.07;2.80;;;;;;;19.52;60.80;99288.59;12216135;19;20010;-80
2023/07/21 00:04:49;;;;;;;3.38;2.88;;;;;;;19.54;60.10;99275.13;12216691;19;20010;-80
2023/07/21 00:08:53;;;;;;;5.55;2.83;;;;;;;19.61;60.37;99274.69;12197280;19;20044;-79
2023/07/21 00:12:56;;;;;;;3.92;3.15;;;;;;;19.64;60.21;99269.25;12220607;19;20510;-79
2023/07/21 00:16:58;;;;;;;6.43;2.75;;;;;;;19.70;59.72;99267.19;12215419;19;20476;-79
2023/07/21 00:21:00;;;;;;;7.05;3.25;;;;;;;19.75;59.30;99269.78;12191458;19;20014;-78
2023/07/21 00:25:05;;;;;;;3.77;2.57;;;;;;;19.76;59.86;99268.66;12214883;19;20006;-79
2023/07/21 00:29:06;;;;;;;3.55;2.55;;;;;;;19.74;59.90;99260.59;12217340;19;20018;-79
2023/07/21 00:33:08;;;;;;;8.27;3.33;;;;;;;19.72;60.71;99254.53;12186998;19;20467;-80
2023/07/21 00:37:11;;;;;;;6.13;2.72;;;;;;;19.71;60.63;99258.44;12216137;19;20007;-78
2023/07/21 00:41:15;;;;;;;3.97;2.63;;;;;;;19.73;60.53;99260.94;12214346;19;20006;-79
2023/07/21 00:45:17;;;;;;;4.10;2.53;;;;;;;19.70;60.38;99254.00;12189154;19;20011;-79
2023/07/21 00:49:19;;;;;;;5.97;2.93;;;;;;;19.68;61.00;99255.47;12215663;19;20456;-80
2023/07/21 00:53:22;;;;;;;;;;;;;;;19.62;60.90;99243.59;12193579;19;20014;-79
2023/07/21 00:57:25;;;;;;;3.03;2.60;;;;;;;19.61;60.87;99247.53;12215853;19;19924;-81
2023/07/21 01:01:26;;;;;;;3.40;2.65;;;;;;;19.64;61.13;99240.50;12215411;19;20007;-80
2023/07/21 01:05:33;;;;;;;5.43;2.88;;;;;;;19.64;61.01;99237.69;12187546;19;20026;-79
2023/07/21 01:09:36;;;;;;;5.20;3.10;;;;;;;19.66;60.47;99241.00;12212791;19;20007;-78
2023/07/21 01:13:40;;;;;;;6.35;2.58;;;;;;;19.69;60.21;99254.31;12212804;19;20013;-79
2023/07/21 01:17:43;;;;;;;3.83;3.10;;;;;;;19.74;60.18;99265.38;12192191;19;20017;-81
2023/07/21 01:21:48;;;;;;;3.83;2.83;;;;;;;19.74;60.07;99262.56;12230671;19;20006;-80
2023/07/21 01:25:52;;;;;;;5.20;2.85;;;;;;;19.70;61.06;99250.41;12222180;19;20010;-81
2023/07/21 01:29:56;;;;;;;4.30;2.65;;;;;;;19.67;60.75;99259.44;12202537;19;20007;-80
2023/07/21 01:33:58;;;;;;;6.22;2.97;;;;;;;19.62;61.02;99253.94;12224255;19;20025;-80
2023/07/21 01:38:01;;;;;;;5.00;3.00;;;;;;;19.56;62.14;99245.72;12226544;19;20350;-79
2023/07/21 01:42:05;;;;;;;5.55;2.60;;;;;;;19.52;63.34;99238.31;12209424;19;20060;-80
2023/07/21 01:46:10;;;;;;;4.68;3.17;;;;;;;19.43;64.41;99238.28;12225995;19;20011;-81
2023/07/21 01:50:16;;;;;;;5.05;3.22;;;;;;;19.37;64.38;99247.94;12221402;19;20007;-79
2023/07/21 01:54:28;;;;;;;4.45;2.72;;;;;;;19.26;64.44;99263.34;12202058;19;20011;-79
2023/07/21 01:58:33;;;;;;;6.45;3.67;;;;;;;19.21;65.54;99266.25;12226039;19;20011;-79
2023/07/21 02:02:35;;;;;;;5.13;3.03;;;;;;;19.19;66.21;99251.81;12207872;19;20016;-80
2023/07/21 02:06:37;;;;;;;4.40;3.05;;;;;;;19.13;66.39;99237.16;12232201;19;20016;-80
2023/07/21 02:10:39;;;;;;;5.47;2.95;;;;;;;19.10;66.42;99238.63;12251107;19;20002;-80
2023/07/21 02:14:56;;;;;;;5.18;3.47;;;;;;;19.02;66.95;99242.19;12196773;19;20029;-80
2023/07/21 02:18:58;;;;;;;3.85;2.97;;;;;;;18.99;68.28;99226.06;12225837;19;20011;-81
2023/07/21 02:23:00;;;;;;;5.77;3.47;;;;;;;18.99;67.75;99217.69;12223064;19;20011;-81
2023/07/21 02:27:02;;;;;;;4.22;2.97;;;;;;;18.96;67.93;99204.38;12202197;19;20011;-81
2023/07/21 02:31:04;;;;;;;5.13;3.08;;;;;;;18.97;68.11;99203.22;12225903;19;20014;-80
2023/07/21 02:35:06;;;;;;;6.10;3.53;;;;;;;18.97;68.61;99225.56;12224701;19;20019;-79
2023/07/21 02:39:08;;;;;;;6.15;3.45;;;;;;;18.97;68.60;99222.75;12202033;19;20006;-79
2023/07/21 02:43:10;;;;;;;5.32;3.10;;;;;;;18.94;68.62;99220.59;12221490;19;20010;-80
2023/07/21 02:47:18;;;;;;;5.97;3.20;;;;;;;18.93;69.40;99221.75;12223900;19;19999;-80
2023/07/21 02:51:19;;;;;;;6.25;3.38;;;;;;;18.89;70.07;99216.00;12198466;19;20067;-79
2023/07/21 02:55:22;;;;;;;6.90;3.20;;;;;;;18.86;70.31;99199.06;12219429;19;20078;-78
2023/07/21 02:59:26;;;;;;;5.93;3.40;;;;;;;18.81;70.90;99191.66;12198587;19;20003;-80
2023/07/21 03:03:32;;;;;;;7.25;3.20;;;;;;;18.77;71.49;99189.81;12219862;19;20031;-79
2023/07/21 03:07:42;;;;;;;4.97;3.22;;;;;;;18.71;71.86;99197.47;12225230;19;19999;-79
2023/07/21 03:11:44;;;;;;;4.43;3.20;;;;;;;18.68;71.68;99190.56;12201044;19;20014;-79
2023/07/21 03:15:54;;;;;;;4.93;3.40;;;;;;;18.71;70.77;99191.03;12219208;19;20006;-81
2023/07/21 03:20:10;;;;;;;5.35;3.47;;;;;;;18.68;71.02;99173.81;12221290;19;20011;-80
2023/07/21 03:24:14;;;;;;;6.47;3.00;;;;;;;18.66;72.12;99186.44;12200552;19;20010;-80
2023/07/21 03:28:16;;;;;;;17.05;3.95;;;;;;;18.64;70.86;99214.66;12221984;19;20006;-80
2023/07/21 03:32:17;;;;;;;20.63;3.38;;;;;;;18.72;70.14;99215.84;12203919;19;20078;-79
2023/07/21 03:36:20;;;;;;;4.18;2.63;;;;;;;18.72;70.20;99220.63;12221505;19;20006;-80
2023/07/21 03:40:23;;;;;;;3.58;2.55;;;;;;;18.65;70.66;99221.91;12219166;19;20475;-80
2023/07/21 03:44:25;;;;;;;4.47;2.90;;;;;;;18.61;71.71;99212.50;12197206;19;20038;-79
2023/07/21 03:48:28;;;;;;;4.43;3.13;;;;;;;18.61;72.29;99211.69;12221048;19;20003;-80
2023/07/21 03:52:31;;;;;;;6.05;3.60;;;;;;;18.61;73.31;99209.69;12221829;19;20067;-79
2023/07/21 03:56:33;;;;;;;5.88;3.38;;;;;;;18.59;73.85;99222.31;12197012;19;20006;-80
2023/07/21 04:00:39;;;;;;;7.20;4.03;;;;;;;18.55;74.82;99227.72;12222851;19;20014;-80
2023/07/21 04:04:40;;;;;;;6.63;4.20;;;;;;;18.52;76.07;99228.34;12225308;19;20010;-79
2023/07/21 04:08:42;;;;;;;6.63;3.97;;;;;;;18.50;78.46;99222.28;12202365;19;20018;-79
2023/07/21 04:12:44;;;;;;;6.38;3.90;;;;;;;18.45;79.14;99214.84;12217689;19;20322;-80
2023/07/21 04:16:46;;;;;;;6.13;4.32;;;;;;;18.45;79.39;99217.63;12219221;19;20018;-80
2023/07/21 04:20:48;;;;;;;6.32;4.35;;;;;;;18.42;79.54;99228.63;12195842;19;20011;-80
2023/07/21 04:24:49;;;;;;;5.83;4.10;;;;;;;18.40;79.69;99219.72;12215770;19;20014;-80
2023/07/21 04:28:52;;;;;;;11.20;4.32;;;;;;;18.40;79.26;99223.34;12216084;19;20303;-79
2023/07/21 04:32:54;;;;;;;6.90;3.45;;;;;;;18.42;78.83;99221.06;12197235;19;20015;-81
2023/07/21 04:36:56;;;;;;;8.70;3.47;;;;;;;18.42;78.63;99215.47;12218410;19;20106;-80
2023/07/21 04:41:04;;;;;;;5.35;3.72;;;;;;;18.38;78.52;99203.31;12211059;19;20028;-79
2023/07/21 04:45:11;;;;;;;5.40;4.03;;;;;;;18.36;79.41;99208.38;12191239;19;20870;-80
2023/07/21 04:49:18;;;;;;;8.80;3.77;;;;;;;18.40;78.90;99203.00;12214663;19;20279;-79
2023/07/21 04:53:22;;;;;;;8.52;4.85;;;;;;;18.47;79.10;99211.72;12197867;19;20002;-79
2023/07/21 04:57:25;;;;;;;5.05;3.17;;;;;;;18.58;78.53;99221.50;12218241;19;20010;-79
2023/07/21 05:01:27;;;;;;;7.05;3.28;;;;;;;18.64;78.47;99225.00;12222134;19;20117;-80
2023/07/21 05:05:30;;;;;;;5.83;3.60;;;;;;;18.62;78.73;99219.75;12208972;19;20023;-80
2023/07/21 05:09:32;;;;;;;;;;;;;;;18.56;81.02;99223.81;12225776;19;20030;-79
2023/07/21 05:13:39;;;;;;;5.05;3.38;;;;;;;18.55;83.09;99233.28;12229952;19;19927;-80
2023/07/21 05:18:10;;;;;;;5.38;3.72;;;;;;;18.49;83.67;99234.56;12213451;19;20014;-81
2023/07/21 05:22:33;;;;;;;6.20;3.55;;;;;;;18.47;87.90;99231.25;12229209;19;20006;-81
2023/07/21 05:26:37;;;;;;;6.07;4.28;;;;;;;18.45;90.45;99237.16;12211189;19;20573;-81
2023/07/21 05:30:53;;;;;;;8.57;4.03;;;;;;;18.42;89.77;99229.44;12227685;19;20085;-83
2023/07/21 05:35:10;;;;;;;6.47;4.75;;;;;;;18.44;92.97;99231.88;12228464;19;20093;-80
2023/07/21 05:39:15;;;;;;;5.80;4.20;;;;;;;18.54;93.88;99226.06;12195749;19;20011;-82
2023/07/21 05:43:17;;;;;;;;;;;;;;;18.61;94.29;99215.28;12238070;19;20018;-82
2023/07/21 05:47:19;;;;;;;6.45;4.07;;;;;;;18.77;91.55;99223.28;12215024;19;19917;-82
2023/07/21 05:51:25;;;;;;;5.97;3.97;;;;;;;18.88;89.61;99231.09;12244473;19;20014;-81
2023/07/21 05:55:34;;;;;;;6.55;3.65;;;;;;;18.99;89.26;99219.66;12263178;19;20014;-80
2023/07/21 05:59:36;;;;;;;5.93;3.63;;;;;;;19.13;88.36;99203.66;12226108;19;19996;-79
2023/07/21 06:03:38;;;;;;;6.20;4.22;;;;;;;19.31;85.59;99204.53;12237472;19;20014;-80
2023/07/21 06:07:43;;;;;;;4.90;3.23;;;;;;;19.49;82.90;99203.44;12237104;19;20002;-79
2023/07/21 06:11:49;;;;;;;6.40;3.20;;;;;;;19.74;80.44;99192.69;12212139;19;20006;-78
2023/07/21 06:16:14;;;;;;;5.55;3.50;;;;;;;20.12;78.91;99181.72;12236183;19;20372;-78
2023/07/21 06:20:20;;;;;;;8.05;3.78;;;;;;;20.43;77.49;99189.91;12218021;19;20011;-79
2023/07/21 06:24:22;;;;;;;5.65;3.60;;;;;;;20.60;74.30;99194.72;12231426;19;20385;-77
2023/07/21 06:28:24;;;;;;;5.68;3.42;;;;;;;20.82;73.12;99188.09;12233056;19;20007;-79
2023/07/21 06:32:26;;;;;;;6.33;3.27;;;;;;;20.95;72.05;99200.25;12215826;19;20011;-78
2023/07/21 06:36:52;;;;;;;6.30;3.70;;;;;;;21.07;70.66;99219.16;12230885;19;20054;-79
2023/07/21 06:41:06;;;;;;;6.88;3.40;;;;;;;21.16;69.67;99233.97;12227847;19;20082;-80
2023/07/21 06:45:24;;;;;;;4.55;3.47;;;;;;;21.37;69.74;99229.28;12200836;19;20015;-78
2023/07/21 06:49:45;;;;;;;4.82;3.53;;;;;;;21.67;67.36;99214.47;12228358;19;20035;-80
2023/07/21 06:53:54;;;;;;;5.40;3.25;;;;;;;21.83;65.45;99219.19;12198236;19;20019;-78
2023/07/21 06:57:56;;;;;;;5.63;3.35;;;;;;;21.95;64.70;99220.41;12217676;19;20017;-79
2023/07/21 07:01:59;;;;;;;7.37;3.63;;;;;;;22.13;64.29;99221.97;12216209;19;20006;-79
2023/07/21 07:06:00;;;;;;;4.50;3.30;;;;;;;22.14;63.21;99215.16;12195305;19;20018;-78
2023/07/21 07:10:03;;;;;;;7.88;4.00;;;;;;;22.18;63.13;99216.16;12212710;19;20010;-78
2023/07/21 07:14:06;;;;;;;9.80;4.25;;;;;;;22.28;65.28;99212.13;12210958;19;20017;-77
2023/07/21 07:18:11;;;;;;;18.23;5.07;;;;;;;22.49;66.01;99212.94;12193196;19;20378;-78
2023/07/21 07:22:13;;;;;;;37.58;7.15;;;;;;;22.69;67.43;99221.66;12210338;19;20010;-77
2023/07/21 07:26:15;;;;;;;9.27;4.93;;;;;;;22.61;67.33;99217.78;12206008;19;20042;-77
2023/07/21 07:30:20;;;;;;;7.18;3.70;;;;;;;22.31;68.12;99222.66;12214480;19;20319;-79
2023/07/21 07:34:22;;;;;;;8.55;4.15;;;;;;;22.25;66.82;99236.09;12217087;19;20031;-79
2023/07/21 07:38:29;;;;;;;8.30;4.33;;;;;;;22.42;65.79;99223.06;12204018;19;20533;-79
2023/07/21 07:42:32;;;;;;;9.85;4.93;;;;;;;22.78;64.95;99224.38;12224143;19;20007;-78
2023/07/21 07:46:34;;;;;;;6.65;4.10;;;;;;;23.23;63.79;99229.22;12215520;19;20010;-77
2023/07/21 07:50:39;;;;;;;10.43;4.45;;;;;;;23.60;62.56;99222.47;12189279;19;20106;-79
2023/07/21 07:54:40;;;;;;;7.70;4.45;;;;;;;23.88;62.38;99227.41;12208147;19;20070;-78
2023/07/21 07:58:42;;;;;;;6.67;4.60;;;;;;;24.17;60.50;99225.50;12209177;19;20094;-77
2023/07/21 08:02:44;;;;;;;7.43;4.73;;;;;;;24.05;59.43;99226.34;12190549;19;20011;-79
2023/07/21 08:06:46;;;;;;;9.40;4.03;;;;;;;23.80;61.51;99231.19;12218522;19;20120;-79
2023/07/21 08:10:48;;;;;;;9.70;4.40;;;;;;;23.67;61.43;99238.75;12213425;19;20066;-78
2023/07/21 08:14:50;;;;;;;;;;;;;;;23.56;61.10;99231.97;12185429;19;20010;-79
2023/07/21 08:18:52;;;;;;;8.52;4.03;;;;;;;23.69;60.18;99230.78;12211907;19;20405;-79
2023/07/21 08:22:53;;;;;;;5.97;4.07;;;;;;;23.70;60.14;99232.44;12210870;19;20011;-78
2023/07/21 08:26:55;;;;;;;6.17;4.20;;;;;;;23.92;59.07;99238.81;12188372;19;20016;-77
2023/07/21 08:30:57;;;;;;;5.95;3.92;;;;;;;23.89;57.81;99240.31;12209757;19;20634;-78
2023/07/21 08:35:00;;;;;;;7.10;4.07;;;;;;;23.94;56.27;99234.44;12209424;19;20010;-78
2023/07/21 08:39:02;;;;;;;5.35;4.25;;;;;;;23.95;55.57;99241.72;12188463;19;20035;-79
2023/07/21 08:43:04;;;;;;;10.67;4.30;;;;;;;23.81;56.25;99242.06;12205845;19;20018;-77
2023/07/21 08:47:06;;;;;;;;;;;;;;;23.91;57.01;99246.41;12206880;19;20007;-77
2023/07/21 08:51:08;;;;;;;5.97;4.20;;;;;;;23.97;55.39;99244.97;12184606;19;19915;-79
2023/07/21 08:55:10;;;;;;;8.27;4.75;;;;;;;23.92;55.29;99248.06;12208020;19;20472;-80
2023/07/21 08:59:11;;;;;;;6.57;4.10;;;;;;;24.11;55.75;99248.25;12207856;19;20081;-78
2023/07/21 09:03:27;;;;;;;8.23;4.20;;;;;;;24.39;53.47;99241.88;12186266;19;20039;-79
2023/07/21 09:07:30;;;;;;;6.70;3.70;;;;;;;24.20;53.63;99242.50;12214403;19;20019;-78
2023/07/21 09:11:35;;;;;;;6.28;4.47;;;;;;;24.21;53.87;99254.56;12184767;19;20022;-78
2023/07/21 09:15:38;;;;;;;4.63;3.42;;;;;;;24.20;53.74;99241.69;12199502;19;20007;-81
2023/07/21 09:19:42;;;;;;;6.82;4.40;;;;;;;24.19;53.90;99251.31;12209686;19;20006;-79
2023/07/21 09:23:46;;;;;;;6.90;4.07;;;;;;;24.21;54.80;99249.78;12189431;19;20010;-78
2023/07/21 09:27:56;;;;;;;6.85;3.75;;;;;;;24.09;53.80;99250.63;12212679;19;20086;-80
2023/07/21 09:32:00;;;;;;;5.78;3.97;;;;;;;23.93;54.85;99249.69;12210582;19;20484;-78
2023/07/21 09:36:11;;;;;;;8.38;3.95;;;;;;;24.15;54.47;99255.97;12197175;19;20014;-80
2023/07/21 09:40:13;;;;;;;5.60;3.80;;;;;;;24.51;54.23;99255.09;12214132;19;20015;-77
2023/07/21 09:44:17;;;;;;;5.77;4.20;;;;;;;24.81;52.68;99258.44;12210105;19;20075;-77
2023/07/21 09:48:21;;;;;;;5.75;3.30;;;;;;;25.04;50.47;99240.94;12220528;19;20493;-78
2023/07/21 09:52:24;;;;;;;5.30;3.72;;;;;;;24.92;50.36;99241.81;12216541;19;20011;-77
2023/07/21 09:56:29;;;;;;;6.00;3.83;;;;;;;24.83;49.33;99239.16;12194153;19;20544;-77
2023/07/21 10:00:33;;;;;;;6.22;3.20;;;;;;;24.92;48.77;99239.00;12216334;19;20007;-78
2023/07/21 10:04:37;;;;;;;5.00;3.28;;;;;;;25.31;47.72;99237.25;12214370;19;20455;-77
2023/07/21 10:08:40;;;;;;;5.65;2.88;;;;;;;25.51;45.83;99241.00;12197576;19;20009;-77
2023/07/21 10:12:53;;;;;;;5.15;3.08;;;;;;;25.70;46.04;99243.13;12213028;19;20006;-78
2023/07/21 10:16:55;;;;;;;5.75;3.08;;;;;;;25.85;45.56;99235.84;12215881;19;20006;-78
2023/07/21 10:20:57;;;;;;;5.20;2.80;;;;;;;26.49;44.75;99228.00;12192232;19;20131;-76
2023/07/21 10:24:59;;;;;;;5.18;3.00;;;;;;;26.75;43.34;99233.84;12214880;19;20492;-78
2023/07/21 10:29:18;;;;;;;5.25;2.70;;;;;;;26.52;43.68;99228.09;12218737;19;20007;-76
2023/07/21 10:33:28;;;;;;;4.18;2.65;;;;;;;26.54;43.82;99239.06;12194778;19;20010;-78
2023/07/21 10:37:30;;;;;;;6.20;2.65;;;;;;;26.26;44.42;99234.34;12217933;19;20390;-77
2023/07/21 10:41:32;;;;;;;6.38;3.85;;;;;;;25.78;44.32;99239.25;12193692;19;20010;-78
2023/07/21 10:45:34;;;;;;;4.70;2.78;;;;;;;25.86;43.97;99232.66;12217682;19;20010;-78
2023/07/21 10:49:36;;;;;;;4.57;2.55;;;;;;;26.06;43.76;99238.34;12216998;19;20094;-76
2023/07/21 10:53:38;;;;;;;5.22;3.40;;;;;;;25.92;43.83;99241.66;12194297;19;20011;-77
2023/07/21 10:57:40;;;;;;;5.38;3.08;;;;;;;25.78;44.33;99242.09;12217795;19;20010;-77
2023/07/21 11:01:44;;;;;;;6.88;2.75;;;;;;;25.83;44.00;99230.56;12218128;19;20014;-78
2023/07/21 11:05:46;;;;;;;5.63;2.60;;;;;;;25.74;43.24;99238.38;12193868;19;19999;-79
2023/07/21 11:09:49;;;;;;;3.40;2.13;;;;;;;25.88;42.34;99229.47;12214866;19;20019;-76
2023/07/21 11:13:52;;;;;;;3.83;2.03;;;;;;;25.75;42.93;99222.25;12212460;19;20274;-77
2023/07/21 11:18:01;;;;;;;7.10;2.28;;;;;;;25.86;41.63;99232.66;12193545;19;20074;-78
2023/07/21 11:22:05;;;;;;;4.38;2.60;;;;;;;25.61;42.72;99234.00;12215593;19;20081;-78
2023/07/21 11:26:11;;;;;;;4.55;2.83;;;;;;;25.84;41.95;99220.91;12216169;19;20010;-77
2023/07/21 11:30:20;;;;;;;5.95;2.40;;;;;;;25.82;41.79;99214.81;12195174;19;20468;-78
2023/07/21 11:34:24;;;;;;;5.65;2.33;;;;;;;26.08;42.25;99217.00;12215070;19;20003;-80
2023/07/21 11:38:26;;;;;;;3.95;2.35;;;;;;;26.23;41.47;99220.97;12193926;19;20007;-78
2023/07/21 11:42:44;;;;;;;5.13;2.70;;;;;;;27.14;39.29;99214.00;12223657;19;20014;-80
2023/07/21 11:47:13;;;;;;;4.22;2.20;;;;;;;27.68;37.81;99207.28;12216694;19;20464;-78
2023/07/21 11:51:15;;;;;;;3.22;2.38;;;;;;;27.31;37.99;99212.72;12193920;19;20014;-78
2023/07/21 11:55:17;;;;;;;4.13;2.17;;;;;;;26.44;39.32;99209.31;12215539;19;20377;-78
2023/07/21 11:59:19;;;;;;;8.35;2.30;;;;;;;25.75;40.07;99210.97;12193563;19;20027;-77
2023/07/21 12:03:21;;;;;;;152.90;13.73;;;;;;;25.48;40.80;99207.88;12211521;19;20031;-76
2023/07/21 12:07:24;;;;;;;;;;;;;;;25.37;39.91;99203.97;12213463;19;20346;-78
2023/07/21 12:11:26;;;;;;;8.23;2.43;;;;;;;25.18;39.61;99208.34;12191094;19;19919;-77
2023/07/21 12:15:29;;;;;;;2.90;1.67;;;;;;;24.72;40.16;99210.69;12211818;19;20256;-78
2023/07/21 12:19:31;;;;;;;5.63;1.83;;;;;;;24.10;40.86;99212.84;12210980;19;20543;-77
2023/07/21 12:23:33;;;;;;;3.87;1.57;;;;;;;23.67;42.11;99216.25;12185105;19;20371;-80
2023/07/21 12:27:37;;;;;;;7.55;1.95;;;;;;;23.38;42.86;99234.16;12212357;19;20367;-77
2023/07/21 12:31:38;;;;;;;5.57;1.73;;;;;;;23.14;44.02;99232.13;12211268;19;20086;-78
2023/07/21 12:35:40;;;;;;;7.95;1.80;;;;;;;22.83;46.58;99243.84;12190415;19;20014;-78
2023/07/21 12:39:42;;;;;;;7.73;1.97;;;;;;;22.41;49.04;99261.53;12209704;19;20007;-78
2023/07/21 12:43:44;;;;;;;5.40;2.20;;;;;;;22.14;52.60;99262.88;12209743;19;20015;-79
2023/07/21 12:47:46;;;;;;;5.17;2.77;;;;;;;21.61;59.09;99269.94;12192786;19;20014;-82
2023/07/21 12:51:50;;;;;;;6.93;2.90;;;;;;;21.05;64.47;99275.50;12215777;19;20007;-80
2023/07/21 12:55:52;;;;;;;4.18;2.88;;;;;;;20.73;68.42;99271.25;12221525;19;20015;-81
2023/07/21 12:59:53;;;;;;;13.07;3.33;;;;;;;20.70;68.94;99275.56;12198232;19;20018;-80
2023/07/21 13:03:55;;;;;;;4.60;2.93;;;;;;;20.74;71.35;99289.72;12220948;19;20030;-80
2023/07/21 13:07:57;;;;;;;9.17;3.37;;;;;;;20.64;75.40;99295.63;12219581;19;20291;-80
2023/07/21 13:11:59;;;;;;;5.33;3.10;;;;;;;20.41;75.82;99306.16;12198631;19;20010;-82
2023/07/21 13:16:01;;;;;;;6.47;2.73;;;;;;;20.42;81.09;99313.38;12215634;19;20007;-80
2023/07/21 13:20:04;;;;;;;5.50;2.70;;;;;;;20.44;82.75;99320.31;12221193;19;20360;-80
2023/07/21 13:24:07;;;;;;;5.40;2.75;;;;;;;20.43;84.57;99329.84;12197930;19;20091;-79
2023/07/21 13:28:09;;;;;;;5.43;2.93;;;;;;;20.30;88.42;99355.19;12249607;19;20031;-79
2023/07/21 13:32:11;;;;;;;3.90;1.95;;;;;;;19.85;87.62;99347.81;12257015;19;20014;-79
2023/07/21 13:36:13;;;;;;;5.10;2.20;;;;;;;19.43;88.73;99352.81;12202076;19;20039;-79
2023/07/21 13:40:15;;;;;;;6.33;2.37;;;;;;;19.29;90.63;99357.66;12219629;19;20018;-79
2023/07/21 13:44:18;;;;;;;3.55;2.28;;;;;;;19.51;92.10;99356.81;12197087;19;20014;-79
2023/07/21 13:48:20;;;;;;;3.58;1.90;;;;;;;19.76;92.94;99370.13;12226030;19;20014;-79
2023/07/21 13:52:22;;;;;;;6.50;2.10;;;;;;;19.81;91.47;99358.00;12222931;19;20021;-79
2023/07/21 13:56:24;;;;;;;4.18;2.35;;;;;;;19.64;94.12;99367.09;12199469;19;20028;-79
2023/07/21 14:00:29;;;;;;;4.10;2.03;;;;;;;19.42;96.94;99356.75;12224416;19;20013;-80
2023/07/21 14:04:31;;;;;;;5.47;2.20;;;;;;;19.38;96.94;99364.13;12220143;19;20059;-79
2023/07/21 14:08:33;;;;;;;3.67;2.45;;;;;;;19.21;98.15;99358.44;12209434;19;20066;-79
2023/07/21 14:12:35;;;;;;;5.77;2.73;;;;;;;19.06;99.73;99365.22;12220552;19;20011;-80
2023/07/21 14:16:37;;;;;;;4.70;2.03;;;;;;;18.96;100.00;99362.69;12222330;19;20006;-80
2023/07/21 14:20:39;;;;;;;3.92;2.40;;;;;;;19.04;100.00;99364.72;12203420;19;20011;-79
2023/07/21 14:24:43;;;;;;;7.28;2.50;;;;;;;19.22;100.00;99362.88;12220944;19;20441;-81
2023/07/21 14:28:45;;;;;;;5.40;2.50;;;;;;;19.48;100.00;99349.91;12219433;19;20489;-79
2023/07/21 14:32:47;;;;;;;4.50;2.50;;;;;;;19.57;100.00;99359.16;12198581;19;20014;-79
2023/07/21 14:36:51;;;;;;;5.75;2.83;;;;;;;19.56;100.00;99365.88;12221902;19;20107;-79
2023/07/21 14:40:53;;;;;;;4.67;2.50;;;;;;;19.41;100.00;99366.28;12223498;19;20011;-79
2023/07/21 14:44:55;;;;;;;5.63;2.03;;;;;;;19.20;100.00;99376.34;12197292;19;20011;-79
2023/07/21 14:48:58;;;;;;;2.92;1.95;;;;;;;19.09;100.00;99356.22;12218554;19;20010;-80
2023/07/21 14:52:59;;;;;;;7.13;2.45;;;;;;;19.01;100.00;99362.56;12223506;19;20032;-80
2023/07/21 14:57:01;;;;;;;6.68;2.65;;;;;;;18.90;100.00;99362.81;12200261;19;20009;-79
2023/07/21 15:01:03;;;;;;;4.47;2.50;;;;;;;18.83;100.00;99356.84;12217596;19;20006;-79
2023/07/21 15:05:06;;;;;;;5.18;2.67;;;;;;;18.83;100.00;99358.81;12215508;19;20370;-80
2023/07/21 15:09:09;;;;;;;4.70;2.70;;;;;;;18.86;100.00;99352.59;12196343;19;20106;-80
2023/07/21 15:13:11;;;;;;;5.03;2.58;;;;;;;18.83;100.00;99358.81;12215484;19;20412;-80
2023/07/21 15:17:13;;;;;;;6.45;2.70;;;;;;;18.88;100.00;99361.47;12223557;19;20010;-79
2023/07/21 15:21:15;;;;;;;4.03;2.30;;;;;;;20.11;100.00;99350.69;12210866;19;20358;-80
2023/07/21 15:25:18;;;;;;;5.25;2.22;;;;;;;23.59;98.09;99358.66;12237164;19;20016;-80
2023/07/21 15:29:20;;;;;;;4.47;2.40;;;;;;;24.48;85.49;99352.41;12212782;19;20479;-81
2023/07/21 15:33:22;;;;;;;5.13;2.00;;;;;;;24.09;81.88;99363.22;12224705;19;20014;-81
2023/07/21 15:37:24;;;;;;;4.27;1.90;;;;;;;23.53;84.26;99357.22;12220871;19;20026;-82
2023/07/21 15:41:26;;;;;;;3.53;2.13;;;;;;;22.93;83.76;99361.38;12195538;19;20015;-82
2023/07/21 15:45:31;;;;;;;4.30;2.13;;;;;;;22.49;82.72;99360.91;12213708;19;20070;-82
2023/07/21 15:49:33;;;;;;;3.43;2.20;;;;;;;22.49;81.80;99355.31;12220937;19;20406;-82
2023/07/21 15:53:51;;;;;;;4.07;2.13;;;;;;;22.75;78.94;99355.94;12198923;19;20006;-84
2023/07/21 15:58:12;;;;;;;4.82;1.85;;;;;;;22.75;76.85;99350.31;12224563;19;20410;-86
2023/07/21 16:02:13;;;;;;;4.63;2.00;;;;;;;22.35;78.08;99346.31;12221503;19;20537;-86
2023/07/21 16:06:15;;;;;;;5.00;1.80;;;;;;;21.92;77.12;99350.13;12197662;19;20055;-85
2023/07/21 16:10:18;;;;;;;5.20;2.00;;;;;;;21.56;76.13;99343.81;12215563;19;20010;-84
2023/07/21 16:14:20;;;;;;;6.60;2.20;;;;;;;21.57;77.94;99351.09;12192798;19;20101;-83
2023/07/21 16:18:21;;;;;;;3.37;1.70;;;;;;;21.56;78.74;99352.22;12217214;19;20089;-81
2023/07/21 16:22:23;;;;;;;4.50;1.97;;;;;;;21.56;77.20;99357.81;12220510;19;20360;-82
2023/07/21 16:26:25;;;;;;;3.60;1.85;;;;;;;21.37;77.87;99349.81;12198366;19;20456;-81
2023/07/21 16:30:27;;;;;;;4.03;1.65;;;;;;;21.28;77.32;99343.38;12211424;19;20029;-81
2023/07/21 16:34:33;;;;;;;3.10;1.80;;;;;;;21.20;77.30;99335.78;12219995;19;20015;-80
2023/07/21 16:38:35;;;;;;;3.70;1.90;;;;;;;21.11;78.08;99341.41;12196350;19;20512;-81
2023/07/21 16:42:37;;;;;;;4.38;1.92;;;;;;;21.11;77.57;99329.38;12220023;19;20369;-81
2023/07/21 16:46:41;;;;;;;4.90;2.13;;;;;;;21.14;76.84;99328.72;12220007;19;20488;-80
2023/07/21 16:50:43;;;;;;;3.50;2.63;;;;;;;21.17;76.03;99322.44;12198656;19;20007;-80
2023/07/21 16:54:44;;;;;;;3.70;2.03;;;;;;;21.17;75.61;99314.88;12226149;19;20126;-80
2023/07/21 16:58:48;;;;;;;3.40;1.83;;;;;;;21.26;73.34;99317.66;12233981;19;20023;-80
2023/07/21 17:02:50;;;;;;;4.90;1.83;;;;;;;21.32;70.29;99316.31;12209414;19;20700;-80
2023/07/21 17:06:52;;;;;;;3.73;1.30;;;;;;;21.37;70.61;99323.75;12233426;19;20015;-79
2023/07/21 17:10:54;;;;;;;3.00;1.67;;;;;;;21.40;69.63;99311.88;12232473;19;20774;-80
2023/07/21 17:14:56;;;;;;;5.70;2.58;;;;;;;21.35;67.86;99307.22;12211214;19;20014;-80
2023/07/21 17:18:58;;;;;;;4.43;1.50;;;;;;;21.34;68.31;99319.63;12233815;19;20023;-80
2023/07/21 17:23:00;;;;;;;4.55;1.70;;;;;;;21.38;67.36;99326.22;12229619;19;20080;-79
2023/07/21 17:27:03;;;;;;;3.30;1.67;;;;;;;21.53;66.54;99322.06;12205786;19;20474;-80
2023/07/21 17:31:07;;;;;;;5.40;1.80;;;;;;;21.80;66.07;99320.81;12231306;19;20006;-79
2023/07/21 17:35:10;;;;;;;2.87;1.57;;;;;;;21.91;65.44;99321.25;12229104;19;20035;-81
2023/07/21 17:39:12;;;;;;;3.13;1.60;;;;;;;21.83;65.29;99325.75;12211596;19;20056;-80
2023/07/21 17:43:13;;;;;;;4.32;1.98;;;;;;;21.64;64.66;99321.69;12234878;19;20006;-80
2023/07/21 17:47:15;;;;;;;2.77;1.83;;;;;;;21.44;66.05;99312.84;12228377;19;20123;-80
2023/07/21 17:51:17;;;;;;;2.80;1.87;;;;;;;21.30;65.16;99313.03;12232163;19;20026;-81
2023/07/21 17:55:19;;;;;;;4.70;1.90;;;;;;;21.23;66.57;99317.50;12235954;19;20011;-80
2023/07/21 17:59:21;;;;;;;3.35;1.98;;;;;;;21.18;66.45;99324.13;12215131;19;20009;-79
2023/07/21 18:03:23;;;;;;;3.73;1.77;;;;;;;21.10;67.12;99327.75;12226507;19;20017;-81
2023/07/21 18:07:25;;;;;;;3.10;1.85;;;;;;;21.05;67.20;99327.91;12227527;19;20279;-81
2023/07/21 18:11:29;;;;;;;3.40;1.90;;;;;;;21.01;67.66;99327.75;12205482;19;20021;-80
2023/07/21 18:15:33;;;;;;;3.05;1.80;;;;;;;20.92;67.82;99324.97;12222969;19;20341;-81
2023/07/21 18:19:36;;;;;;;4.43;2.00;;;;;;;20.82;67.91;99321.66;12227270;19;20348;-80
2023/07/21 18:23:38;;;;;;;3.73;1.80;;;;;;;20.75;68.28;99324.97;12201750;19;20032;-82
2023/07/21 18:27:42;;;;;;;3.30;1.67;;;;;;;20.65;68.71;99333.69;12228927;19;20295;-80
2023/07/21 18:31:44;;;;;;;3.30;1.85;;;;;;;20.55;68.59;99334.00;12221923;19;20728;-81
2023/07/21 18:35:49;;;;;;;3.63;1.50;;;;;;;20.46;69.54;99332.00;12200867;19;20010;-81
2023/07/21 18:39:51;;;;;;;4.95;1.85;;;;;;;20.38;70.44;99337.59;12223727;19;20010;-81
2023/07/21 18:43:52;;;;;;;6.97;2.37;;;;;;;20.30;70.82;99369.16;12219351;19;20487;-81
2023/07/21 18:47:56;;;;;;;3.28;1.73;;;;;;;20.11;72.07;99416.97;12198787;19;20015;-84
2023/07/21 18:51:58;;;;;;;3.33;1.50;;;;;;;19.99;72.31;99410.03;12223364;19;20074;-80
2023/07/21 18:55:59;;;;;;;4.63;1.70;;;;;;;19.87;72.33;99418.22;12226510;19;20268;-81